Time;durP1;ratioP1;P1;durP2;ratioP2;P2;SDS_P1;SDS_P2;PMS_P1;PMS_P2;Temp;Humidity;BMP_temperature;BMP_pressure;BME280_temperature;BME280_humidity;BME280_pressure;Samples;Min_cycle;Max_cycle;Signal;HPM_P1;HPM_P2
2021/06/24 00:02:02;;;;;;;9.60;6.70;;;;;;;;;;3584279;40;20029;-63
2021/06/24 00:04:29;;;;;;;7.05;5.93;;;;;;;;;;3583471;40;20419;-64
2021/06/24 00:06:55;;;;;;;9.95;5.97;;;;;;;;;;3582678;40;20077;-63
2021/06/24 00:09:20;;;;;;;9.88;5.32;;;;;;;;;;3580768;40;20039;-64
2021/06/24 00:11:46;;;;;;;8.73;6.22;;;;;;;;;;3584558;40;20083;-64
2021/06/24 00:14:11;;;;;;;9.02;6.10;;;;;;;;;;3585085;40;20036;-64
2021/06/24 00:16:37;;;;;;;8.85;6.55;;;;;;;;;;3583600;40;20288;-64
2021/06/24 00:19:02;;;;;;;8.75;5.93;;;;;;;;;;3581994;40;20135;-63
2021/06/24 00:21:28;;;;;;;8.60;5.85;;;;;;;;;;3583378;40;20033;-64
2021/06/24 00:23:53;;;;;;;8.38;6.32;;;;;;;;;;3582464;40;20343;-64
2021/06/24 00:26:19;;;;;;;7.88;5.95;;;;;;;;;;3582551;40;20368;-64
2021/06/24 00:28:44;;;;;;;8.38;6.07;;;;;;;;;;3583024;40;20040;-64
2021/06/24 00:31:10;;;;;;;10.02;6.60;;;;;;;;;;3573234;40;20033;-63
2021/06/24 00:33:35;;;;;;;10.60;7.30;;;;;;;;;;3583147;40;20186;-64
2021/06/24 00:36:01;;;;;;;13.65;8.32;;;;;;;;;;3583342;40;20052;-63
2021/06/24 00:38:26;;;;;;;11.20;7.85;;;;;;;;;;3582571;40;20029;-63
2021/06/24 00:40:52;;;;;;;9.77;8.43;;;;;;;;;;3582463;40;20401;-64
2021/06/24 00:43:19;;;;;;;9.77;8.57;;;;;;;;;;3578226;40;20048;-66
2021/06/24 00:45:46;;;;;;;14.02;8.50;;;;;;;;;;3583758;40;20116;-66
2021/06/24 00:48:13;;;;;;;10.30;8.85;;;;;;;;;;3584852;40;20056;-66
2021/06/24 00:50:42;;;;;;;11.90;10.07;;;;;;;;;;3583403;40;20067;-66
2021/06/24 00:53:09;;;;;;;10.30;8.60;;;;;;;;;;3583185;40;20049;-65
2021/06/24 00:55:42;;;;;;;11.43;10.25;;;;;;;;;;3574928;40;20056;-66
2021/06/24 00:58:09;;;;;;;11.40;10.00;;;;;;;;;;3583674;40;20044;-66
2021/06/24 01:00:36;;;;;;;12.60;8.95;;;;;;;;;;3583210;40;20427;-66
2021/06/24 01:03:02;;;;;;;11.77;9.88;;;;;;;;;;3582344;40;20045;-66
2021/06/24 01:05:28;;;;;;;12.43;10.82;;;;;;;;;;3581638;40;20079;-64
2021/06/24 01:07:53;;;;;;;12.43;9.35;;;;;;;;;;3583684;40;20032;-63
2021/06/24 01:10:19;;;;;;;10.43;8.82;;;;;;;;;;3583165;40;20028;-66
2021/06/24 01:12:44;;;;;;;12.98;11.30;;;;;;;;;;3582065;40;20178;-66
2021/06/24 01:15:10;;;;;;;13.05;9.30;;;;;;;;;;3581711;40;20036;-66
2021/06/24 01:17:36;;;;;;;12.15;10.55;;;;;;;;;;3583531;40;20043;-66
2021/06/24 01:20:03;;;;;;;11.45;9.77;;;;;;;;;;3583544;40;20045;-65
2021/06/24 01:22:29;;;;;;;14.13;11.30;;;;;;;;;;3582335;40;20047;-65
2021/06/24 01:24:54;;;;;;;14.68;9.88;;;;;;;;;;3582257;40;20368;-65
2021/06/24 01:27:19;;;;;;;11.63;10.10;;;;;;;;;;3584206;40;20028;-65
2021/06/24 01:29:45;;;;;;;15.30;10.38;;;;;;;;;;3584888;40;20367;-65
2021/06/24 01:32:10;;;;;;;10.32;9.27;;;;;;;;;;3582363;40;20341;-65
2021/06/24 01:34:38;;;;;;;11.90;9.70;;;;;;;;;;3581740;40;20044;-65
2021/06/24 01:37:05;;;;;;;10.70;9.57;;;;;;;;;;3581749;40;20241;-66
2021/06/24 01:39:30;;;;;;;12.90;11.23;;;;;;;;;;3582198;40;20072;-65
2021/06/24 01:41:57;;;;;;;12.52;11.25;;;;;;;;;;3583413;40;20027;-65
2021/06/24 01:44:31;;;;;;;13.80;11.90;;;;;;;;;;3581907;40;20028;-64
2021/06/24 01:46:57;;;;;;;16.35;12.55;;;;;;;;;;3580939;40;20383;-65
2021/06/24 01:49:22;;;;;;;18.55;12.15;;;;;;;;;;3580641;40;20040;-65
2021/06/24 01:51:48;;;;;;;16.08;12.65;;;;;;;;;;3582607;40;20335;-64
2021/06/24 01:54:17;;;;;;;23.08;11.68;;;;;;;;;;3581948;40;20118;-64
2021/06/24 01:56:42;;;;;;;12.88;11.48;;;;;;;;;;3581657;40;20042;-64
2021/06/24 01:59:08;;;;;;;13.50;11.95;;;;;;;;;;3582800;40;20045;-65
2021/06/24 02:01:33;;;;;;;12.45;11.15;;;;;;;;;;3583736;40;20029;-65
2021/06/24 02:03:59;;;;;;;12.15;10.10;;;;;;;;;;3576313;40;20113;-65
2021/06/24 02:06:24;;;;;;;14.52;11.70;;;;;;;;;;3582653;40;20040;-64
2021/06/24 02:08:50;;;;;;;11.32;10.00;;;;;;;;;;3581634;40;20033;-65
2021/06/24 02:11:15;;;;;;;18.63;10.57;;;;;;;;;;3580664;40;20527;-65
2021/06/24 02:13:41;;;;;;;12.23;10.98;;;;;;;;;;3580820;40;20032;-65
2021/06/24 02:16:06;;;;;;;12.48;11.25;;;;;;;;;;3584092;40;20037;-65
2021/06/24 02:18:32;;;;;;;14.05;12.05;;;;;;;;;;3582207;40;20092;-65
2021/06/24 02:20:57;;;;;;;15.27;11.52;;;;;;;;;;3581386;40;20290;-65
2021/06/24 02:23:22;;;;;;;18.10;11.23;;;;;;;;;;3582241;40;20044;-65
2021/06/24 02:25:48;;;;;;;18.90;12.13;;;;;;;;;;3583869;40;20035;-66
2021/06/24 02:28:13;;;;;;;15.77;12.73;;;;;;;;;;3582154;40;20389;-66
2021/06/24 02:30:39;;;;;;;13.65;11.90;;;;;;;;;;3582868;40;20033;-66
2021/06/24 02:33:06;;;;;;;13.10;11.85;;;;;;;;;;3580503;40;20077;-67
2021/06/24 02:35:35;;;;;;;13.63;12.27;;;;;;;;;;3581362;40;20088;-66
2021/06/24 02:38:02;;;;;;;12.02;10.93;;;;;;;;;;3574251;40;20302;-66
2021/06/24 02:40:27;;;;;;;16.25;12.73;;;;;;;;;;3566910;40;20645;-66
2021/06/24 02:42:53;;;;;;;13.25;12.05;;;;;;;;;;3580180;40;20035;-66
2021/06/24 02:45:18;;;;;;;13.55;11.85;;;;;;;;;;3582192;40;20040;-66
2021/06/24 02:47:43;;;;;;;13.38;12.07;;;;;;;;;;3581249;40;20084;-66
2021/06/24 02:50:11;;;;;;;12.57;11.38;;;;;;;;;;3575500;40;20029;-65
2021/06/24 02:52:37;;;;;;;15.60;12.55;;;;;;;;;;3581892;40;20100;-66
2021/06/24 02:55:04;;;;;;;14.60;12.98;;;;;;;;;;3578241;40;20067;-66
2021/06/24 02:57:29;;;;;;;13.70;12.30;;;;;;;;;;3581384;40;20130;-66
2021/06/24 02:59:55;;;;;;;12.63;11.35;;;;;;;;;;3581495;40;20045;-66
2021/06/24 03:02:20;;;;;;;14.60;13.23;;;;;;;;;;3580779;40;20071;-66
2021/06/24 03:04:46;;;;;;;14.23;12.82;;;;;;;;;;3580852;40;20028;-66
2021/06/24 03:07:12;;;;;;;12.52;11.23;;;;;;;;;;3582493;40;20037;-66
2021/06/24 03:09:37;;;;;;;13.57;12.05;;;;;;;;;;3579614;40;20055;-66
2021/06/24 03:12:03;;;;;;;13.88;12.68;;;;;;;;;;3580346;40;20037;-67
2021/06/24 03:14:29;;;;;;;13.60;11.90;;;;;;;;;;3572188;40;20137;-66
2021/06/24 03:16:55;;;;;;;15.05;12.35;;;;;;;;;;3581741;40;20773;-67
2021/06/24 03:19:20;;;;;;;13.05;11.77;;;;;;;;;;3581865;40;20045;-67
2021/06/24 03:21:46;;;;;;;14.98;13.05;;;;;;;;;;3582885;40;20032;-67
2021/06/24 03:24:11;;;;;;;16.40;13.07;;;;;;;;;;3580317;40;20036;-67
2021/06/24 03:26:37;;;;;;;15.45;12.35;;;;;;;;;;3583696;40;20036;-67
2021/06/24 03:29:04;;;;;;;14.52;13.10;;;;;;;;;;3585682;40;20032;-67
2021/06/24 03:31:29;;;;;;;14.15;11.82;;;;;;;;;;3585077;40;20110;-67
2021/06/24 03:33:55;;;;;;;13.70;12.20;;;;;;;;;;3582921;40;20395;-67
2021/06/24 03:36:21;;;;;;;14.15;12.02;;;;;;;;;;3581222;40;20049;-67
2021/06/24 03:38:48;;;;;;;12.73;11.45;;;;;;;;;;3583847;40;20065;-67
2021/06/24 03:41:15;;;;;;;13.32;11.02;;;;;;;;;;3583414;40;20026;-67
2021/06/24 03:43:41;;;;;;;12.65;11.25;;;;;;;;;;3582699;40;20276;-67
2021/06/24 03:46:08;;;;;;;12.73;11.52;;;;;;;;;;3583196;40;20396;-67
2021/06/24 03:48:33;;;;;;;14.30;12.90;;;;;;;;;;3583513;40;20060;-68
2021/06/24 03:50:59;;;;;;;14.00;12.60;;;;;;;;;;3583144;40;20044;-67
2021/06/24 03:53:24;;;;;;;16.23;13.90;;;;;;;;;;3582579;40;20056;-67
2021/06/24 03:55:50;;;;;;;14.38;13.00;;;;;;;;;;3584250;40;20032;-68
2021/06/24 03:58:15;;;;;;;13.88;12.48;;;;;;;;;;3579917;40;20092;-68
2021/06/24 04:00:43;;;;;;;16.48;13.52;;;;;;;;;;3581468;40;20028;-67
2021/06/24 04:03:09;;;;;;;14.38;12.98;;;;;;;;;;3582665;40;20028;-68
2021/06/24 04:05:35;;;;;;;15.30;13.70;;;;;;;;;;3582789;40;20029;-68
2021/06/24 04:08:03;;;;;;;17.17;12.80;;;;;;;;;;3582462;40;20159;-68
2021/06/24 04:10:29;;;;;;;14.55;13.10;;;;;;;;;;3583127;40;20133;-68
2021/06/24 04:12:55;;;;;;;13.65;12.00;;;;;;;;;;3582983;40;20029;-68
2021/06/24 04:15:25;;;;;;;15.85;12.02;;;;;;;;;;3581544;40;20276;-68
2021/06/24 04:17:51;;;;;;;13.67;12.07;;;;;;;;;;3581628;40;20048;-68
2021/06/24 04:20:16;;;;;;;15.30;13.77;;;;;;;;;;3575804;40;20562;-68
2021/06/24 04:22:42;;;;;;;18.90;12.70;;;;;;;;;;3580797;40;20036;-68
2021/06/24 04:25:10;;;;;;;17.58;13.55;;;;;;;;;;3581292;40;20040;-68
2021/06/24 04:27:35;;;;;;;17.60;13.82;;;;;;;;;;3581188;40;20045;-68
2021/06/24 04:30:03;;;;;;;20.27;13.50;;;;;;;;;;3581328;40;20459;-68
2021/06/24 04:32:29;;;;;;;14.20;12.35;;;;;;;;;;3582692;40;20360;-68
2021/06/24 04:34:54;;;;;;;14.10;12.65;;;;;;;;;;3582284;40;20037;-69
2021/06/24 04:37:20;;;;;;;19.20;14.13;;;;;;;;;;3580955;40;20091;-68
2021/06/24 04:39:45;;;;;;;17.00;12.70;;;;;;;;;;3584306;40;20045;-66
2021/06/24 04:42:11;;;;;;;15.02;13.45;;;;;;;;;;3582521;40;20565;-67
2021/06/24 04:44:36;;;;;;;15.18;13.13;;;;;;;;;;3582512;40;20038;-68
2021/06/24 04:47:03;;;;;;;19.10;14.07;;;;;;;;;;3581827;40;20049;-68
2021/06/24 04:49:29;;;;;;;17.67;12.68;;;;;;;;;;3582042;40;20336;-68
2021/06/24 04:51:54;;;;;;;14.32;12.93;;;;;;;;;;3582715;40;20071;-68
2021/06/24 04:54:19;;;;;;;15.18;13.68;;;;;;;;;;3573909;40;20368;-68
2021/06/24 04:56:45;;;;;;;14.38;12.85;;;;;;;;;;3582729;40;20177;-69
2021/06/24 04:59:11;;;;;;;15.65;14.02;;;;;;;;;;3583984;40;20025;-68
2021/06/24 05:01:36;;;;;;;15.32;13.88;;;;;;;;;;3575239;40;20125;-68
2021/06/24 05:04:02;;;;;;;17.15;13.70;;;;;;;;;;3581775;40;20041;-68
2021/06/24 05:06:27;;;;;;;15.85;14.10;;;;;;;;;;3580250;40;20079;-67
2021/06/24 05:08:53;;;;;;;19.45;14.18;;;;;;;;;;3585095;40;20040;-67
2021/06/24 05:11:18;;;;;;;16.45;14.68;;;;;;;;;;3583415;40;20025;-66
2021/06/24 05:13:44;;;;;;;18.08;15.38;;;;;;;;;;3582655;40;20036;-66
2021/06/24 05:16:10;;;;;;;19.25;14.40;;;;;;;;;;3582370;40;20041;-66
2021/06/24 05:18:36;;;;;;;18.38;15.93;;;;;;;;;;3582904;40;20056;-66
2021/06/24 05:21:02;;;;;;;19.52;17.45;;;;;;;;;;3581340;40;20531;-66
2021/06/24 05:23:28;;;;;;;18.75;16.83;;;;;;;;;;3581483;40;20044;-66
2021/06/24 05:25:53;;;;;;;19.08;17.08;;;;;;;;;;3583216;40;20025;-66
2021/06/24 05:28:19;;;;;;;22.13;17.48;;;;;;;;;;3582970;40;20029;-65
2021/06/24 05:30:46;;;;;;;20.92;16.10;;;;;;;;;;3584853;40;20128;-67
2021/06/24 05:33:12;;;;;;;17.40;15.63;;;;;;;;;;3583125;40;20041;-65
2021/06/24 05:35:38;;;;;;;23.75;16.60;;;;;;;;;;3582168;40;20045;-66
2021/06/24 05:38:04;;;;;;;19.30;14.68;;;;;;;;;;3583168;40;20056;-66
2021/06/24 05:40:30;;;;;;;15.65;14.10;;;;;;;;;;3577061;40;20040;-66
2021/06/24 05:42:55;;;;;;;16.35;14.65;;;;;;;;;;3584031;40;20056;-66
2021/06/24 05:45:27;;;;;;;16.92;15.10;;;;;;;;;;3574562;40;20048;-65
2021/06/24 05:47:54;;;;;;;21.98;16.17;;;;;;;;;;3581479;40;20048;-66
2021/06/24 05:50:20;;;;;;;22.50;14.23;;;;;;;;;;3582857;40;20058;-65
2021/06/24 05:52:45;;;;;;;18.08;16.27;;;;;;;;;;3584070;40;20403;-66
2021/06/24 05:55:11;;;;;;;18.98;15.43;;;;;;;;;;3582532;40;20448;-68
2021/06/24 05:57:37;;;;;;;18.30;16.27;;;;;;;;;;3582777;40;20081;-67
2021/06/24 06:00:04;;;;;;;17.35;15.75;;;;;;;;;;3582395;40;20029;-67
2021/06/24 06:02:30;;;;;;;18.50;16.67;;;;;;;;;;3582691;40;20073;-68
2021/06/24 06:04:55;;;;;;;25.95;17.75;;;;;;;;;;3579773;40;20028;-68
2021/06/24 06:07:21;;;;;;;20.92;15.68;;;;;;;;;;3581810;40;20032;-67
2021/06/24 06:09:46;;;;;;;18.55;16.45;;;;;;;;;;3582852;40;20041;-67
2021/06/24 06:12:12;;;;;;;19.73;16.15;;;;;;;;;;3582880;40;20037;-66
2021/06/24 06:14:37;;;;;;;17.83;16.13;;;;;;;;;;3582546;40;20055;-67
2021/06/24 06:17:03;;;;;;;18.38;16.55;;;;;;;;;;3582316;40;20025;-66
2021/06/24 06:19:29;;;;;;;18.15;16.25;;;;;;;;;;3580981;40;20021;-66
2021/06/24 06:21:54;;;;;;;19.77;17.67;;;;;;;;;;3581379;40;20311;-67
2021/06/24 06:24:20;;;;;;;21.20;16.83;;;;;;;;;;3581794;40;20025;-67
2021/06/24 06:26:46;;;;;;;21.77;15.30;;;;;;;;;;3584026;40;20041;-66
2021/06/24 06:29:11;;;;;;;17.42;15.52;;;;;;;;;;3581597;40;20068;-67
2021/06/24 06:31:39;;;;;;;18.50;16.45;;;;;;;;;;3581183;40;20286;-67
2021/06/24 06:34:06;;;;;;;19.45;17.42;;;;;;;;;;3582409;40;20400;-66
2021/06/24 06:36:31;;;;;;;19.02;16.77;;;;;;;;;;3582744;40;20036;-67
2021/06/24 06:38:57;;;;;;;17.83;16.13;;;;;;;;;;3583828;40;20295;-67
2021/06/24 06:41:22;;;;;;;19.73;16.13;;;;;;;;;;3580009;40;20080;-65
2021/06/24 06:43:48;;;;;;;16.95;15.25;;;;;;;;;;3580047;40;20446;-65
2021/06/24 06:46:13;;;;;;;18.00;16.27;;;;;;;;;;3582988;40;20037;-66
2021/06/24 06:48:40;;;;;;;17.08;15.43;;;;;;;;;;3572990;40;20044;-66
2021/06/24 06:51:06;;;;;;;20.10;18.15;;;;;;;;;;3582070;40;20187;-66
2021/06/24 06:53:31;;;;;;;22.08;18.48;;;;;;;;;;3581119;40;20064;-66
2021/06/24 06:55:57;;;;;;;21.08;16.52;;;;;;;;;;3581819;40;20053;-66
2021/06/24 06:58:22;;;;;;;21.23;17.20;;;;;;;;;;3581587;40;20049;-65
2021/06/24 07:00:48;;;;;;;24.17;17.73;;;;;;;;;;3584497;40;20060;-65
2021/06/24 07:03:14;;;;;;;18.38;16.55;;;;;;;;;;3583067;40;20040;-65
2021/06/24 07:05:40;;;;;;;17.98;16.27;;;;;;;;;;3581744;40;20280;-65
2021/06/24 07:08:05;;;;;;;19.02;16.98;;;;;;;;;;3583253;40;20051;-66
2021/06/24 07:10:31;;;;;;;18.02;16.15;;;;;;;;;;3583195;40;20048;-66
2021/06/24 07:12:56;;;;;;;19.30;17.33;;;;;;;;;;3582924;40;20411;-66
2021/06/24 07:15:22;;;;;;;23.73;16.77;;;;;;;;;;3583690;40;20037;-66
2021/06/24 07:17:48;;;;;;;18.52;16.42;;;;;;;;;;3576388;40;20354;-67
2021/06/24 07:20:14;;;;;;;29.13;18.55;;;;;;;;;;3583365;40;20065;-65
2021/06/24 07:22:39;;;;;;;20.08;18.02;;;;;;;;;;3582875;40;20048;-65
2021/06/24 07:25:07;;;;;;;19.75;17.77;;;;;;;;;;3581643;40;20039;-65
2021/06/24 07:27:32;;;;;;;21.70;17.63;;;;;;;;;;3584233;40;20041;-65
2021/06/24 07:29:58;;;;;;;20.40;18.48;;;;;;;;;;3583200;40;20129;-66
2021/06/24 07:32:23;;;;;;;21.38;19.25;;;;;;;;;;3584553;40;20032;-66
2021/06/24 07:34:49;;;;;;;20.08;18.25;;;;;;;;;;3583038;40;20052;-65
2021/06/24 07:37:14;;;;;;;22.33;18.27;;;;;;;;;;3581602;40;20040;-67
2021/06/24 07:39:40;;;;;;;20.65;18.77;;;;;;;;;;3581986;40;20041;-66
2021/06/24 07:42:06;;;;;;;21.38;19.27;;;;;;;;;;3583989;40;20387;-66
2021/06/24 07:44:31;;;;;;;20.98;19.05;;;;;;;;;;3573749;40;20124;-67
2021/06/24 07:46:57;;;;;;;20.50;18.42;;;;;;;;;;3583447;40;20060;-66
2021/06/24 07:49:23;;;;;;;20.48;18.42;;;;;;;;;;3572065;40;20402;-67
2021/06/24 07:51:49;;;;;;;21.80;19.35;;;;;;;;;;3582087;40;20056;-67
2021/06/24 07:54:15;;;;;;;28.73;19.05;;;;;;;;;;3585221;40;20041;-67
2021/06/24 07:56:41;;;;;;;21.63;19.63;;;;;;;;;;3583223;40;20150;-66
2021/06/24 07:59:10;;;;;;;29.65;19.92;;;;;;;;;;3581418;40;20057;-67
2021/06/24 08:01:36;;;;;;;24.35;20.23;;;;;;;;;;3584035;40;20071;-66
2021/06/24 08:04:04;;;;;;;25.52;20.40;;;;;;;;;;3576895;40;20090;-67
2021/06/24 08:06:29;;;;;;;22.15;19.92;;;;;;;;;;3582808;40;20065;-67
2021/06/24 08:08:54;;;;;;;25.60;20.05;;;;;;;;;;3581865;40;20029;-66
2021/06/24 08:11:20;;;;;;;22.80;20.48;;;;;;;;;;3579680;40;20073;-67
2021/06/24 08:13:45;;;;;;;20.88;18.67;;;;;;;;;;3580406;40;20036;-67
2021/06/24 08:16:11;;;;;;;21.63;19.45;;;;;;;;;;3581633;40;20049;-67
2021/06/24 08:18:36;;;;;;;21.38;19.05;;;;;;;;;;3583613;40;20032;-68
2021/06/24 08:21:04;;;;;;;23.63;19.42;;;;;;;;;;3583135;40;20129;-67
2021/06/24 08:23:29;;;;;;;20.92;18.77;;;;;;;;;;3583572;40;20045;-67
2021/06/24 08:25:55;;;;;;;21.95;19.67;;;;;;;;;;3585480;40;20048;-66
2021/06/24 08:28:20;;;;;;;21.67;19.40;;;;;;;;;;3583745;40;20133;-67
2021/06/24 08:30:47;;;;;;;22.83;20.58;;;;;;;;;;3581049;40;20080;-67
2021/06/24 08:33:13;;;;;;;21.90;19.67;;;;;;;;;;3581023;40;20032;-67
2021/06/24 08:35:39;;;;;;;20.98;18.83;;;;;;;;;;3583153;40;20045;-67
2021/06/24 08:38:04;;;;;;;26.70;20.42;;;;;;;;;;3584290;40;20358;-67
2021/06/24 08:40:30;;;;;;;21.48;19.20;;;;;;;;;;3582530;40;20040;-67
2021/06/24 08:42:56;;;;;;;22.35;20.13;;;;;;;;;;3582428;40;20292;-68
2021/06/24 08:45:21;;;;;;;23.73;21.13;;;;;;;;;;3582409;40;20025;-67
2021/06/24 08:47:50;;;;;;;23.85;21.48;;;;;;;;;;3583184;40;20311;-67
2021/06/24 08:50:17;;;;;;;25.73;21.55;;;;;;;;;;3574990;40;20218;-67
2021/06/24 08:52:45;;;;;;;26.70;21.38;;;;;;;;;;3576508;40;20040;-66
2021/06/24 08:55:11;;;;;;;23.27;20.83;;;;;;;;;;3581720;40;20041;-66
2021/06/24 08:57:36;;;;;;;24.50;20.67;;;;;;;;;;3583746;40;20044;-67
2021/06/24 09:00:04;;;;;;;23.13;20.40;;;;;;;;;;3583668;40;20041;-66
2021/06/24 09:02:41;;;;;;;24.75;20.50;;;;;;;;;;3574899;40;20069;-66
2021/06/24 09:05:07;;;;;;;22.42;20.13;;;;;;;;;;3581980;40;20036;-67
2021/06/24 09:07:49;;;;;;;22.58;20.25;;;;;;;;;;3582108;40;20576;-67
2021/06/24 09:10:15;;;;;;;32.28;21.75;;;;;;;;;;3582290;40;20033;-67
2021/06/24 09:12:55;;;;;;;23.30;20.73;;;;;;;;;;3583279;40;20059;-67
2021/06/24 09:15:23;;;;;;;24.25;20.70;;;;;;;;;;3580733;40;20264;-67
2021/06/24 09:17:49;;;;;;;23.63;20.92;;;;;;;;;;3582263;40;20048;-67
2021/06/24 09:20:20;;;;;;;22.73;20.48;;;;;;;;;;3580989;40;20039;-67
2021/06/24 09:23:07;;;;;;;22.88;20.58;;;;;;;;;;3582092;40;20073;-67
2021/06/24 09:25:35;;;;;;;22.05;19.88;;;;;;;;;;3582933;40;20276;-67
2021/06/24 09:28:00;;;;;;;22.88;20.52;;;;;;;;;;3581181;40;20372;-68
2021/06/24 09:30:31;;;;;;;21.83;19.00;;;;;;;;;;3578627;40;20064;-68
2021/06/24 09:33:05;;;;;;;;;;;;;;;;;;3581907;40;20727;-68
2021/06/24 09:35:31;;;;;;;20.33;18.42;;;;;;;;;;3582052;40;19929;-67
2021/06/24 09:38:13;;;;;;;23.08;20.75;;;;;;;;;;3582797;40;20099;-68
2021/06/24 09:40:53;;;;;;;23.63;21.13;;;;;;;;;;3582858;40;20042;-67
2021/06/24 09:43:32;;;;;;;23.08;20.80;;;;;;;;;;3581745;40;20052;-67
2021/06/24 09:46:09;;;;;;;22.73;20.52;;;;;;;;;;3581258;40;20111;-67
2021/06/24 09:48:40;;;;;;;22.08;19.98;;;;;;;;;;3583402;40;20049;-67
2021/06/24 09:51:17;;;;;;;21.50;19.38;;;;;;;;;;3582477;40;20045;-67
2021/06/24 09:53:50;;;;;;;20.75;18.58;;;;;;;;;;3582617;40;20167;-66
2021/06/24 09:56:36;;;;;;;23.90;19.35;;;;;;;;;;3581961;40;20055;-67
2021/06/24 09:59:06;;;;;;;21.40;19.48;;;;;;;;;;3581829;40;20060;-67
2021/06/24 10:01:37;;;;;;;22.20;20.20;;;;;;;;;;3582949;40;20037;-67
2021/06/24 10:04:23;;;;;;;21.95;19.48;;;;;;;;;;3571796;40;20025;-68
2021/06/24 10:06:53;;;;;;;22.40;19.90;;;;;;;;;;3583468;40;20049;-67
2021/06/24 10:09:20;;;;;;;20.77;18.80;;;;;;;;;;3581419;40;20073;-67
2021/06/24 10:11:47;;;;;;;21.17;19.13;;;;;;;;;;3582702;40;20028;-67
2021/06/24 10:14:15;;;;;;;21.95;19.77;;;;;;;;;;3580578;40;20032;-67
2021/06/24 10:16:42;;;;;;;21.38;18.92;;;;;;;;;;3581559;40;20044;-67
2021/06/24 10:19:08;;;;;;;26.50;19.90;;;;;;;;;;3583213;40;20032;-67
2021/06/24 10:21:37;;;;;;;22.38;20.08;;;;;;;;;;3580353;40;20051;-67
2021/06/24 10:24:05;;;;;;;22.95;20.55;;;;;;;;;;3581670;40;20036;-67
2021/06/24 10:26:32;;;;;;;21.35;19.33;;;;;;;;;;3582010;40;20028;-67
2021/06/24 10:29:17;;;;;;;22.08;19.88;;;;;;;;;;3580372;40;20117;-67
2021/06/24 10:31:51;;;;;;;22.02;19.85;;;;;;;;;;3581820;40;20071;-67
2021/06/24 10:34:18;;;;;;;22.88;20.58;;;;;;;;;;3573180;40;20046;-67
2021/06/24 10:37:09;;;;;;;22.67;20.42;;;;;;;;;;3583943;40;20048;-67
2021/06/24 10:39:36;;;;;;;22.70;20.50;;;;;;;;;;3584126;40;20549;-67
2021/06/24 10:42:10;;;;;;;23.27;21.00;;;;;;;;;;3583280;40;20033;-68
2021/06/24 10:44:50;;;;;;;22.45;20.27;;;;;;;;;;3583600;40;20037;-68
2021/06/24 10:47:29;;;;;;;18.98;17.33;;;;;;;;;;3584373;40;20059;-68
2021/06/24 10:49:54;;;;;;;20.15;18.15;;;;;;;;;;3582839;40;20126;-68
2021/06/24 10:52:28;;;;;;;20.25;18.20;;;;;;;;;;3584298;40;20044;-68
2021/06/24 10:54:55;;;;;;;21.13;19.13;;;;;;;;;;3582485;40;20048;-69
2021/06/24 10:57:35;;;;;;;26.73;19.05;;;;;;;;;;3582765;40;20391;-69
2021/06/24 11:00:39;;;;;;;21.70;19.60;;;;;;;;;;3584489;40;20049;-69
2021/06/24 11:03:24;;;;;;;19.58;17.77;;;;;;;;;;3542468;40;20136;-68
2021/06/24 11:05:51;;;;;;;21.45;19.27;;;;;;;;;;3579704;40;20439;-68
2021/06/24 11:08:29;;;;;;;21.27;19.17;;;;;;;;;;3583845;40;20419;-67
2021/06/24 11:10:59;;;;;;;20.58;18.70;;;;;;;;;;3583941;40;20052;-68
2021/06/24 11:13:49;;;;;;;21.52;19.67;;;;;;;;;;3583449;40;20103;-66
2021/06/24 11:16:18;;;;;;;24.52;21.95;;;;;;;;;;3570376;40;20032;-67
2021/06/24 11:18:59;;;;;;;20.33;18.33;;;;;;;;;;3584507;40;20037;-67
2021/06/24 11:21:31;;;;;;;20.67;18.48;;;;;;;;;;3584404;40;20035;-67
2021/06/24 11:24:01;;;;;;;21.33;19.33;;;;;;;;;;3583024;40;21246;-67
2021/06/24 11:26:29;;;;;;;20.33;18.23;;;;;;;;;;3574689;40;20033;-67
2021/06/24 11:32:10;;;;;;;21.63;19.55;;;;;;;;;;3583608;40;20371;-67
2021/06/24 11:34:53;;;;;;;21.30;17.52;;;;;;;;;;3576448;40;20029;-69
2021/06/24 11:37:33;;;;;;;19.50;17.65;;;;;;;;;;3574155;40;20472;-68
2021/06/24 11:40:00;;;;;;;20.77;18.50;;;;;;;;;;3583878;40;20086;-68
2021/06/24 11:42:37;;;;;;;23.15;19.33;;;;;;;;;;3582976;40;20041;-68
2021/06/24 11:45:06;;;;;;;20.17;18.23;;;;;;;;;;3575857;40;20126;-68
2021/06/24 11:47:33;;;;;;;20.63;18.17;;;;;;;;;;3582846;40;20048;-68
2021/06/24 12:01:57;;;;;;;18.48;16.77;;;;;;;;;;3582697;40;20397;-67
2021/06/24 12:04:31;;;;;;;19.50;17.42;;;;;;;;;;3577767;40;20049;-68
2021/06/24 12:07:00;;;;;;;18.83;16.95;;;;;;;;;;3582053;40;20275;-68
2021/06/24 12:09:49;;;;;;;17.40;15.63;;;;;;;;;;3582852;40;20036;-68
2021/06/24 12:12:18;;;;;;;22.90;18.05;;;;;;;;;;3577103;40;20138;-68
2021/06/24 12:14:45;;;;;;;17.60;15.90;;;;;;;;;;3583286;40;20037;-68
2021/06/24 12:17:26;;;;;;;18.10;16.35;;;;;;;;;;3582207;40;20029;-68
2021/06/24 12:20:03;;;;;;;16.27;14.77;;;;;;;;;;3574449;40;20032;-68
2021/06/24 12:22:31;;;;;;;17.65;15.68;;;;;;;;;;3581408;40;20065;-68
2021/06/24 12:24:58;;;;;;;17.15;15.50;;;;;;;;;;3581064;40;20404;-69
2021/06/24 12:27:26;;;;;;;18.27;16.55;;;;;;;;;;3583644;40;20129;-69
2021/06/24 12:29:58;;;;;;;19.10;16.15;;;;;;;;;;3583830;40;20052;-69
2021/06/24 12:32:25;;;;;;;16.58;15.05;;;;;;;;;;3582822;40;20611;-68
2021/06/24 12:34:55;;;;;;;16.55;15.15;;;;;;;;;;3581843;40;20094;-68
2021/06/24 12:37:31;;;;;;;20.10;18.25;;;;;;;;;;3576257;40;20133;-67
2021/06/24 12:39:57;;;;;;;19.20;16.58;;;;;;;;;;3581056;40;20049;-68
2021/06/24 12:42:23;;;;;;;19.00;17.30;;;;;;;;;;3582732;40;20056;-67
2021/06/24 12:44:49;;;;;;;17.13;15.52;;;;;;;;;;3583758;40;20036;-67
2021/06/24 12:47:43;;;;;;;19.95;18.00;;;;;;;;;;3583006;40;20359;-67
2021/06/24 12:50:19;;;;;;;18.45;16.80;;;;;;;;;;3584257;40;20056;-66
2021/06/24 12:53:08;;;;;;;16.90;15.30;;;;;;;;;;3582220;40;20064;-65
2021/06/24 12:55:37;;;;;;;16.50;15.00;;;;;;;;;;3581321;40;20048;-65
2021/06/24 12:58:09;;;;;;;16.05;14.13;;;;;;;;;;3582651;40;20052;-65
2021/06/24 13:00:35;;;;;;;20.83;19.05;;;;;;;;;;3583449;40;20256;-65
2021/06/24 13:03:02;;;;;;;18.83;17.05;;;;;;;;;;3582627;40;20049;-64
2021/06/24 13:05:28;;;;;;;16.85;15.25;;;;;;;;;;3582709;40;20133;-64
2021/06/24 13:08:02;;;;;;;17.65;16.02;;;;;;;;;;3582801;40;20028;-65
2021/06/24 13:10:28;;;;;;;14.70;13.25;;;;;;;;;;3581155;40;20029;-64
2021/06/24 13:12:53;;;;;;;18.27;16.67;;;;;;;;;;3584483;40;20047;-64
2021/06/24 13:15:36;;;;;;;14.60;13.10;;;;;;;;;;3581280;40;20041;-64
2021/06/24 13:18:01;;;;;;;13.57;12.30;;;;;;;;;;3581193;40;20037;-64
2021/06/24 13:20:28;;;;;;;14.20;12.80;;;;;;;;;;3584309;40;20049;-64
2021/06/24 13:23:10;;;;;;;15.02;13.52;;;;;;;;;;3581952;40;20036;-64
2021/06/24 13:25:42;;;;;;;14.35;13.13;;;;;;;;;;3582680;40;20040;-64
2021/06/24 13:28:09;;;;;;;13.45;12.05;;;;;;;;;;3582065;40;20028;-64
2021/06/24 13:30:40;;;;;;;12.82;11.60;;;;;;;;;;3583090;40;20033;-63
2021/06/24 13:33:07;;;;;;;9.38;8.48;;;;;;;;;;3582836;40;20064;-64
2021/06/24 13:35:33;;;;;;;13.75;12.35;;;;;;;;;;3583025;40;20145;-63
2021/06/24 13:38:09;;;;;;;13.02;11.82;;;;;;;;;;3582586;40;20406;-63
2021/06/24 13:40:46;;;;;;;14.02;12.85;;;;;;;;;;3582068;40;20042;-63
2021/06/24 13:43:17;;;;;;;12.63;11.43;;;;;;;;;;3582803;40;20264;-64
2021/06/24 13:45:45;;;;;;;10.82;9.65;;;;;;;;;;3582595;40;20413;-64
2021/06/24 13:48:12;;;;;;;12.15;10.65;;;;;;;;;;3581771;40;20304;-63
2021/06/24 13:50:38;;;;;;;8.93;8.13;;;;;;;;;;3581684;40;20049;-63
2021/06/24 13:53:18;;;;;;;10.38;9.43;;;;;;;;;;3583327;40;20067;-63
2021/06/24 13:55:45;;;;;;;14.53;11.70;;;;;;;;;;3583096;40;20048;-63
2021/06/24 13:58:10;;;;;;;11.48;10.48;;;;;;;;;;3583313;40;20036;-63
2021/06/24 14:00:38;;;;;;;12.27;11.10;;;;;;;;;;3581856;40;20048;-63
2021/06/24 14:03:05;;;;;;;13.35;12.23;;;;;;;;;;3582919;40;20040;-63
2021/06/24 14:05:31;;;;;;;13.95;12.75;;;;;;;;;;3583123;40;20036;-63
2021/06/24 14:07:56;;;;;;;14.15;12.80;;;;;;;;;;3581940;40;20040;-64
2021/06/24 14:10:22;;;;;;;10.77;9.82;;;;;;;;;;3581993;40;20024;-63
2021/06/24 14:12:47;;;;;;;11.35;10.40;;;;;;;;;;3582283;40;20095;-63
2021/06/24 14:15:13;;;;;;;11.93;10.93;;;;;;;;;;3582476;40;20033;-63
2021/06/24 14:17:39;;;;;;;10.38;9.38;;;;;;;;;;3581256;40;20033;-63
2021/06/24 14:20:06;;;;;;;11.85;10.90;;;;;;;;;;3582185;40;20295;-63
2021/06/24 14:22:31;;;;;;;11.45;10.50;;;;;;;;;;3582864;40;20407;-63
2021/06/24 14:24:57;;;;;;;9.77;8.38;;;;;;;;;;3583754;40;20057;-63
2021/06/24 14:27:22;;;;;;;9.48;7.88;;;;;;;;;;3576119;40;20574;-63
2021/06/24 14:29:47;;;;;;;12.85;11.65;;;;;;;;;;3581319;40;20045;-63
2021/06/24 14:32:13;;;;;;;11.60;10.60;;;;;;;;;;3582425;40;20073;-63
2021/06/24 14:34:38;;;;;;;8.63;7.72;;;;;;;;;;3582654;40;20068;-63
2021/06/24 14:37:04;;;;;;;10.77;9.65;;;;;;;;;;3582643;40;20040;-63
2021/06/24 14:39:31;;;;;;;13.18;10.23;;;;;;;;;;3581424;40;20045;-64